Terminal Aerodrome Forecast
Issued by NWS

Home | Current Version | Previous Version | Text Only | Print | Product List | Glossary On
Versions: 1 2 3 4 5 6 7 8 9 10 11 12 13 14 15 16 17 18
000
FTUS43 KDDC 200531
TAFHYS
TAF
KHYS 200531Z 2006/2106 13008KT P6SM FEW250
     FM201500 14013G19KT P6SM BKN120
     FM210000 11012KT 6SM -RA OVC050
     FM210300 11009KT 6SM -RA OVC025
     FM210500 12010KT 6SM -RA OVC010=

USA.gov is the U.S. government's official web portal to all federal, state and local government web resources and services.